createdAt,value
2023-02-19T00:06:14.149Z,10.80
2023-02-19T00:16:21.853Z,10.80
2023-02-19T00:26:26.336Z,10.80
2023-02-19T00:36:32.397Z,10.70
2023-02-19T00:46:39.830Z,10.70
2023-02-19T00:56:44.929Z,10.70
2023-02-19T01:06:49.051Z,10.70
2023-02-19T01:16:54.053Z,10.70
2023-02-19T01:26:59.673Z,10.70
2023-02-19T01:37:04.712Z,10.80
2023-02-19T01:47:08.445Z,10.80
2023-02-19T01:57:23.479Z,10.80
2023-02-19T02:07:45.462Z,10.80
2023-02-19T02:17:58.309Z,10.80
2023-02-19T02:28:21.614Z,10.70
2023-02-19T02:38:30.476Z,10.70
2023-02-19T02:48:38.887Z,10.70
2023-02-19T02:58:44.429Z,10.60
2023-02-19T03:08:54.472Z,10.40
2023-02-19T03:19:18.152Z,10.40
2023-02-19T03:29:26.076Z,10.40
2023-02-19T03:39:32.019Z,10.50
2023-02-19T03:49:43.346Z,10.50
2023-02-19T03:59:55.116Z,10.50
2023-02-19T04:09:58.995Z,10.50
2023-02-19T04:20:08.551Z,10.40
2023-02-19T04:30:15.369Z,10.50
2023-02-19T04:40:21.906Z,10.40
2023-02-19T04:50:26.351Z,10.40
2023-02-19T05:00:31.637Z,10.40
2023-02-19T05:10:35.737Z,10.40
2023-02-19T05:20:40.619Z,10.50
2023-02-19T05:30:44.471Z,10.60
2023-02-19T05:40:49.538Z,10.50
2023-02-19T05:50:53.182Z,10.50
2023-02-19T06:00:58.414Z,10.50
2023-02-19T06:11:02.014Z,10.60
2023-02-19T06:21:10.100Z,10.50
2023-02-19T06:31:14.927Z,10.50
2023-02-19T06:41:20.494Z,10.60
2023-02-19T06:51:28.829Z,10.60
2023-02-19T07:01:35.540Z,10.70
2023-02-19T07:11:43.564Z,10.60
2023-02-19T07:21:48.579Z,10.50
2023-02-19T07:31:52.204Z,10.60
2023-02-19T07:41:57.146Z,10.60
2023-02-19T07:52:00.911Z,10.80
2023-02-19T08:02:23.474Z,10.70
2023-02-19T08:12:44.656Z,10.60
2023-02-19T08:22:49.553Z,10.60
2023-02-19T08:32:53.314Z,10.60
2023-02-19T08:43:04.276Z,10.70
2023-02-19T08:53:08.293Z,10.60
2023-02-19T09:03:13.227Z,10.50
2023-02-19T09:13:16.870Z,10.60
2023-02-19T09:23:21.829Z,10.80
2023-02-19T09:33:25.493Z,11.20
2023-02-19T09:43:30.965Z,11.20
2023-02-19T09:53:43.272Z,11.10
2023-02-19T10:03:49.740Z,11.10
2023-02-19T10:14:09.428Z,11.00
2023-02-19T10:24:29.824Z,11.10
2023-02-19T10:34:33.558Z,11.20
2023-02-19T10:44:45.588Z,11.30
2023-02-19T10:54:53.738Z,11.20
2023-02-19T11:05:17.335Z,11.50
2023-02-19T11:15:24.351Z,11.40
2023-02-19T11:25:29.922Z,11.70
2023-02-19T11:35:33.554Z,11.80
2023-02-19T11:45:47.962Z,11.90
2023-02-19T11:56:12.151Z,11.70
2023-02-19T12:06:28.968Z,12.10
2023-02-19T12:16:41.195Z,11.90
2023-02-19T12:27:01.930Z,12.30
2023-02-19T12:37:27.183Z,12.80
2023-02-19T12:47:40.123Z,12.80
2023-02-19T12:57:44.275Z,12.30
2023-02-19T13:07:58.264Z,12.00
2023-02-19T13:18:06.489Z,11.90
2023-02-19T13:28:27.406Z,12.10
2023-02-19T13:38:31.309Z,12.30
2023-02-19T13:48:38.505Z,12.10
2023-02-19T13:59:02.377Z,12.10
2023-02-19T14:09:46.618Z,12.10
2023-02-19T14:20:01.885Z,12.10
2023-02-19T14:30:12.832Z,12.20
2023-02-19T14:40:23.211Z,12.20
2023-02-19T14:50:31.940Z,12.10
2023-02-19T15:00:38.561Z,12.10
2023-02-19T15:10:44.655Z,12.10
2023-02-19T15:20:49.100Z,11.90
2023-02-19T15:31:11.697Z,11.90
2023-02-19T15:41:22.936Z,11.70
2023-02-19T15:51:36.616Z,11.60
2023-02-19T16:01:43.625Z,11.40
2023-02-19T16:11:53.704Z,11.30
2023-02-19T16:21:58.366Z,11.20
2023-02-19T16:32:07.418Z,11.10
2023-02-19T16:42:15.444Z,11.00
2023-02-19T16:52:20.635Z,10.90
2023-02-19T17:02:26.008Z,10.80
2023-02-19T17:12:31.030Z,10.70
2023-02-19T17:22:34.656Z,10.70
2023-02-19T17:32:39.833Z,10.70
2023-02-19T17:42:44.364Z,10.70
2023-02-19T17:52:49.459Z,10.60
2023-02-19T18:02:53.748Z,10.60
2023-02-19T18:12:58.755Z,10.50
2023-02-19T18:23:02.785Z,10.60
2023-02-19T18:33:10.677Z,10.50
2023-02-19T18:43:14.727Z,10.40
2023-02-19T18:53:19.729Z,10.20
2023-02-19T19:03:23.721Z,10.20
2023-02-19T19:13:28.678Z,10.10
2023-02-19T19:23:32.822Z,10.10
2023-02-19T19:33:37.778Z,10.10
2023-02-19T19:43:41.513Z,10.10
2023-02-19T19:53:48.884Z,10.10
2023-02-19T20:03:52.748Z,10.10
2023-02-19T20:13:57.848Z,10.20
2023-02-19T20:24:02.349Z,10.10
2023-02-19T20:34:07.609Z,10.10
2023-02-19T20:44:11.394Z,10.10
2023-02-19T20:54:18.719Z,9.90
2023-02-19T21:04:22.366Z,9.90
2023-02-19T21:14:27.584Z,9.90
2023-02-19T21:24:32.716Z,9.90
2023-02-19T21:34:37.975Z,9.90
2023-02-19T21:44:43.166Z,9.90
2023-02-19T21:54:48.266Z,9.90
2023-02-19T22:04:56.150Z,9.80
2023-02-19T22:15:01.321Z,9.80
2023-02-19T22:25:05.543Z,9.70
2023-02-19T22:35:10.650Z,9.70
2023-02-19T22:45:15.321Z,9.60
2023-02-19T22:55:20.544Z,9.60
2023-02-19T23:05:25.425Z,9.60
2023-02-19T23:15:30.510Z,9.50
2023-02-19T23:25:34.565Z,9.50
2023-02-19T23:35:39.514Z,9.40
2023-02-19T23:45:43.544Z,9.30
2023-02-19T23:55:48.521Z,9.10
